sensor_id;sensor_type;location;lat;lon;timestamp;temperature;humidity
74822;DHT22;63353;48.702;8.884;2022-12-18T00:01:28;-12.70;99.90
74822;DHT22;63353;48.702;8.884;2022-12-18T00:04:02;-12.80;99.90
74822;DHT22;63353;48.702;8.884;2022-12-18T00:06:29;-12.80;99.90
74822;DHT22;63353;48.702;8.884;2022-12-18T00:08:56;-12.80;99.90
74822;DHT22;63353;48.702;8.884;2022-12-18T00:11:24;-12.70;99.90
74822;DHT22;63353;48.702;8.884;2022-12-18T00:13:50;-12.60;99.90
74822;DHT22;63353;48.702;8.884;2022-12-18T00:16:26;-12.60;99.90
74822;DHT22;63353;48.702;8.884;2022-12-18T00:18:57;-12.70;99.90
74822;DHT22;63353;48.702;8.884;2022-12-18T00:21:23;-12.80;99.90
74822;DHT22;63353;48.702;8.884;2022-12-18T00:23:51;-12.80;99.90
74822;DHT22;63353;48.702;8.884;2022-12-18T00:26:22;-12.60;99.90
74822;DHT22;63353;48.702;8.884;2022-12-18T00:28:49;-12.50;99.90
74822;DHT22;63353;48.702;8.884;2022-12-18T00:31:20;-12.60;99.90
74822;DHT22;63353;48.702;8.884;2022-12-18T00:33:46;-12.70;99.90
74822;DHT22;63353;48.702;8.884;2022-12-18T00:36:14;-12.70;99.90
74822;DHT22;63353;48.702;8.884;2022-12-18T00:38:44;-12.80;99.90
74822;DHT22;63353;48.702;8.884;2022-12-18T00:41:17;-12.70;99.90
74822;DHT22;63353;48.702;8.884;2022-12-18T00:44:14;-12.70;99.90
74822;DHT22;63353;48.702;8.884;2022-12-18T00:46:44;-12.80;99.90
74822;DHT22;63353;48.702;8.884;2022-12-18T00:49:10;-12.80;99.90
74822;DHT22;63353;48.702;8.884;2022-12-18T00:51:48;-12.80;99.90
74822;DHT22;63353;48.702;8.884;2022-12-18T00:54:17;-12.80;99.90
74822;DHT22;63353;48.702;8.884;2022-12-18T00:56:49;-12.80;99.90
74822;DHT22;63353;48.702;8.884;2022-12-18T00:59:18;-12.60;99.90
74822;DHT22;63353;48.702;8.884;2022-12-18T01:01:44;-12.60;99.90
74822;DHT22;63353;48.702;8.884;2022-12-18T01:04:13;-12.40;99.90
74822;DHT22;63353;48.702;8.884;2022-12-18T01:07:00;-12.20;99.90
74822;DHT22;63353;48.702;8.884;2022-12-18T01:09:26;-12.30;99.90
74822;DHT22;63353;48.702;8.884;2022-12-18T01:11:51;-12.40;99.90
74822;DHT22;63353;48.702;8.884;2022-12-18T01:14:20;-12.50;99.90
74822;DHT22;63353;48.702;8.884;2022-12-18T01:16:46;-12.60;99.90
74822;DHT22;63353;48.702;8.884;2022-12-18T01:19:18;-12.60;99.90
74822;DHT22;63353;48.702;8.884;2022-12-18T01:21:49;-12.50;99.90
74822;DHT22;63353;48.702;8.884;2022-12-18T01:24:18;-12.30;99.90
74822;DHT22;63353;48.702;8.884;2022-12-18T01:26:53;-11.90;99.90
74822;DHT22;63353;48.702;8.884;2022-12-18T01:29:18;-11.90;99.90
74822;DHT22;63353;48.702;8.884;2022-12-18T01:31:50;-12.00;99.90
74822;DHT22;63353;48.702;8.884;2022-12-18T01:34:16;-12.00;99.90
74822;DHT22;63353;48.702;8.884;2022-12-18T01:36:57;-12.10;99.90
74822;DHT22;63353;48.702;8.884;2022-12-18T01:39:23;-12.20;99.90
74822;DHT22;63353;48.702;8.884;2022-12-18T01:41:49;-12.20;99.90
74822;DHT22;63353;48.702;8.884;2022-12-18T01:44:56;-12.20;99.90
74822;DHT22;63353;48.702;8.884;2022-12-18T01:50:42;-12.20;99.90
74822;DHT22;63353;48.702;8.884;2022-12-18T01:55:47;-12.10;99.90
74822;DHT22;63353;48.702;8.884;2022-12-18T01:58:30;-12.10;99.90
74822;DHT22;63353;48.702;8.884;2022-12-18T02:01:00;-12.10;99.90
74822;DHT22;63353;48.702;8.884;2022-12-18T02:03:40;-12.00;99.90
74822;DHT22;63353;48.702;8.884;2022-12-18T02:06:35;-12.00;99.90
74822;DHT22;63353;48.702;8.884;2022-12-18T02:09:15;-11.80;99.90
74822;DHT22;63353;48.702;8.884;2022-12-18T02:18:08;-11.00;99.90
74822;DHT22;63353;48.702;8.884;2022-12-18T02:21:00;-11.00;99.90
74822;DHT22;63353;48.702;8.884;2022-12-18T02:26:22;-10.90;99.90
74822;DHT22;63353;48.702;8.884;2022-12-18T02:29:23;-10.80;99.90
74822;DHT22;63353;48.702;8.884;2022-12-18T02:31:52;-10.70;99.90
74822;DHT22;63353;48.702;8.884;2022-12-18T02:34:19;-10.70;99.90
74822;DHT22;63353;48.702;8.884;2022-12-18T02:36:50;-10.80;99.90
74822;DHT22;63353;48.702;8.884;2022-12-18T02:39:25;-10.80;99.90
74822;DHT22;63353;48.702;8.884;2022-12-18T02:41:55;-10.80;99.90
74822;DHT22;63353;48.702;8.884;2022-12-18T02:44:24;-10.80;99.90
74822;DHT22;63353;48.702;8.884;2022-12-18T02:46:52;-10.90;99.90
74822;DHT22;63353;48.702;8.884;2022-12-18T03:04:07;-10.90;99.90
74822;DHT22;63353;48.702;8.884;2022-12-18T03:06:44;-11.00;99.90
74822;DHT22;63353;48.702;8.884;2022-12-18T03:18:35;-10.90;99.90
74822;DHT22;63353;48.702;8.884;2022-12-18T03:21:05;-10.90;99.90
74822;DHT22;63353;48.702;8.884;2022-12-18T03:23:40;-11.00;99.90
74822;DHT22;63353;48.702;8.884;2022-12-18T03:26:17;-11.20;99.90
74822;DHT22;63353;48.702;8.884;2022-12-18T03:29:04;-11.20;99.90
74822;DHT22;63353;48.702;8.884;2022-12-18T03:31:35;-11.20;99.90
74822;DHT22;63353;48.702;8.884;2022-12-18T03:34:09;-11.30;99.90
74822;DHT22;63353;48.702;8.884;2022-12-18T03:36:39;-11.30;99.90
74822;DHT22;63353;48.702;8.884;2022-12-18T03:39:14;-11.30;99.90
74822;DHT22;63353;48.702;8.884;2022-12-18T03:41:55;-11.30;99.90
74822;DHT22;63353;48.702;8.884;2022-12-18T03:47:45;-11.20;99.90
74822;DHT22;63353;48.702;8.884;2022-12-18T03:53:04;-11.00;99.90
74822;DHT22;63353;48.702;8.884;2022-12-18T03:55:37;-11.10;99.90
74822;DHT22;63353;48.702;8.884;2022-12-18T03:58:11;-11.10;99.90
74822;DHT22;63353;48.702;8.884;2022-12-18T04:00:39;-11.20;99.90
74822;DHT22;63353;48.702;8.884;2022-12-18T04:03:09;-11.20;99.90
74822;DHT22;63353;48.702;8.884;2022-12-18T04:05:50;-11.20;99.90
74822;DHT22;63353;48.702;8.884;2022-12-18T04:08:17;-11.00;99.90
74822;DHT22;63353;48.702;8.884;2022-12-18T04:10:45;-10.90;99.90
74822;DHT22;63353;48.702;8.884;2022-12-18T04:13:22;-10.90;99.90
74822;DHT22;63353;48.702;8.884;2022-12-18T04:16:00;-11.00;99.90
74822;DHT22;63353;48.702;8.884;2022-12-18T04:18:26;-10.90;99.90
74822;DHT22;63353;48.702;8.884;2022-12-18T04:20:58;-10.90;99.90
74822;DHT22;63353;48.702;8.884;2022-12-18T04:23:24;-11.00;99.90
74822;DHT22;63353;48.702;8.884;2022-12-18T04:25:55;-11.10;99.90
74822;DHT22;63353;48.702;8.884;2022-12-18T04:28:21;-11.00;99.90
74822;DHT22;63353;48.702;8.884;2022-12-18T04:30:50;-11.10;99.90
74822;DHT22;63353;48.702;8.884;2022-12-18T04:33:18;-11.10;99.90
74822;DHT22;63353;48.702;8.884;2022-12-18T04:35:50;-11.20;99.90
74822;DHT22;63353;48.702;8.884;2022-12-18T04:38:16;-11.30;99.90
74822;DHT22;63353;48.702;8.884;2022-12-18T04:40:54;-11.40;99.90
74822;DHT22;63353;48.702;8.884;2022-12-18T04:43:20;-11.50;99.90
74822;DHT22;63353;48.702;8.884;2022-12-18T04:45:45;-11.60;99.90
74822;DHT22;63353;48.702;8.884;2022-12-18T04:48:17;-11.70;99.90
74822;DHT22;63353;48.702;8.884;2022-12-18T04:50:49;-11.70;99.90
74822;DHT22;63353;48.702;8.884;2022-12-18T04:53:17;-11.70;99.90
74822;DHT22;63353;48.702;8.884;2022-12-18T04:55:43;-11.50;99.90
74822;DHT22;63353;48.702;8.884;2022-12-18T04:58:15;-11.40;99.90
74822;DHT22;63353;48.702;8.884;2022-12-18T05:00:55;-11.20;99.90
74822;DHT22;63353;48.702;8.884;2022-12-18T05:03:21;-10.80;99.90
74822;DHT22;63353;48.702;8.884;2022-12-18T05:05:50;-10.60;99.90
74822;DHT22;63353;48.702;8.884;2022-12-18T05:08:22;-10.30;99.90
74822;DHT22;63353;48.702;8.884;2022-12-18T05:10:59;-10.10;99.90
74822;DHT22;63353;48.702;8.884;2022-12-18T05:13:25;-10.00;99.90
74822;DHT22;63353;48.702;8.884;2022-12-18T05:15:52;-9.90;99.90
74822;DHT22;63353;48.702;8.884;2022-12-18T05:18:28;-9.90;99.90
74822;DHT22;63353;48.702;8.884;2022-12-18T05:20:59;-9.80;99.90
74822;DHT22;63353;48.702;8.884;2022-12-18T05:23:28;-9.70;99.90
74822;DHT22;63353;48.702;8.884;2022-12-18T05:26:01;-9.60;99.90
74822;DHT22;63353;48.702;8.884;2022-12-18T05:28:29;-9.50;99.90
74822;DHT22;63353;48.702;8.884;2022-12-18T05:30:59;-9.40;99.90
74822;DHT22;63353;48.702;8.884;2022-12-18T05:33:31;-9.50;99.90
74822;DHT22;63353;48.702;8.884;2022-12-18T05:35:59;-9.50;99.90
74822;DHT22;63353;48.702;8.884;2022-12-18T05:38:29;-9.50;99.90
74822;DHT22;63353;48.702;8.884;2022-12-18T05:41:02;-9.50;99.90
74822;DHT22;63353;48.702;8.884;2022-12-18T05:43:31;-9.50;99.90
74822;DHT22;63353;48.702;8.884;2022-12-18T05:46:13;-9.50;99.90
74822;DHT22;63353;48.702;8.884;2022-12-18T05:48:43;-9.50;99.90
74822;DHT22;63353;48.702;8.884;2022-12-18T05:51:22;-9.50;99.90
74822;DHT22;63353;48.702;8.884;2022-12-18T05:53:50;-9.50;99.90
74822;DHT22;63353;48.702;8.884;2022-12-18T05:56:25;-9.50;99.90
74822;DHT22;63353;48.702;8.884;2022-12-18T05:58:54;-9.50;99.90
74822;DHT22;63353;48.702;8.884;2022-12-18T06:01:23;-9.60;99.90
74822;DHT22;63353;48.702;8.884;2022-12-18T06:03:49;-9.70;99.90
74822;DHT22;63353;48.702;8.884;2022-12-18T06:06:23;-9.80;99.90
74822;DHT22;63353;48.702;8.884;2022-12-18T06:08:50;-9.80;99.90
74822;DHT22;63353;48.702;8.884;2022-12-18T06:11:24;-9.80;99.90
74822;DHT22;63353;48.702;8.884;2022-12-18T06:13:52;-9.80;99.90
74822;DHT22;63353;48.702;8.884;2022-12-18T06:16:18;-9.90;99.90
74822;DHT22;63353;48.702;8.884;2022-12-18T06:18:44;-10.10;99.90
74822;DHT22;63353;48.702;8.884;2022-12-18T06:21:12;-10.10;99.90
74822;DHT22;63353;48.702;8.884;2022-12-18T06:23:38;-10.20;99.90
74822;DHT22;63353;48.702;8.884;2022-12-18T06:26:16;-10.40;99.90
74822;DHT22;63353;48.702;8.884;2022-12-18T06:28:42;-10.50;99.90
74822;DHT22;63353;48.702;8.884;2022-12-18T06:31:09;-10.60;99.90
74822;DHT22;63353;48.702;8.884;2022-12-18T06:33:35;-10.70;99.90
74822;DHT22;63353;48.702;8.884;2022-12-18T06:36:06;-10.80;99.90
74822;DHT22;63353;48.702;8.884;2022-12-18T06:38:33;-10.90;99.90
74822;DHT22;63353;48.702;8.884;2022-12-18T06:40:59;-11.00;99.90
74822;DHT22;63353;48.702;8.884;2022-12-18T06:43:25;-11.10;99.90
74822;DHT22;63353;48.702;8.884;2022-12-18T06:45:51;-11.20;99.90
74822;DHT22;63353;48.702;8.884;2022-12-18T06:48:27;-11.40;99.90
74822;DHT22;63353;48.702;8.884;2022-12-18T06:50:58;-11.40;99.90
74822;DHT22;63353;48.702;8.884;2022-12-18T06:53:27;-11.40;99.90
74822;DHT22;63353;48.702;8.884;2022-12-18T06:56:03;-11.50;99.90
74822;DHT22;63353;48.702;8.884;2022-12-18T06:58:29;-11.50;99.90
74822;DHT22;63353;48.702;8.884;2022-12-18T07:01:00;-11.50;99.90
74822;DHT22;63353;48.702;8.884;2022-12-18T07:03:26;-11.60;99.90
74822;DHT22;63353;48.702;8.884;2022-12-18T07:05:52;-11.50;99.90
74822;DHT22;63353;48.702;8.884;2022-12-18T07:08:20;-11.50;99.90
74822;DHT22;63353;48.702;8.884;2022-12-18T07:10:49;-11.20;99.90
74822;DHT22;63353;48.702;8.884;2022-12-18T07:13:18;-10.80;99.90
74822;DHT22;63353;48.702;8.884;2022-12-18T07:16:02;-10.70;99.90
74822;DHT22;63353;48.702;8.884;2022-12-18T07:18:28;-10.70;99.90
74822;DHT22;63353;48.702;8.884;2022-12-18T07:20:57;-10.60;99.90
74822;DHT22;63353;48.702;8.884;2022-12-18T07:23:25;-10.60;99.90
74822;DHT22;63353;48.702;8.884;2022-12-18T07:26:10;-10.40;99.90
74822;DHT22;63353;48.702;8.884;2022-12-18T07:28:36;-10.20;99.90
74822;DHT22;63353;48.702;8.884;2022-12-18T07:31:14;-10.00;99.90
74822;DHT22;63353;48.702;8.884;2022-12-18T07:33:40;-9.90;99.90
74822;DHT22;63353;48.702;8.884;2022-12-18T07:36:10;-9.70;99.90
74822;DHT22;63353;48.702;8.884;2022-12-18T07:38:36;-9.60;99.90
74822;DHT22;63353;48.702;8.884;2022-12-18T07:41:03;-9.60;99.90
74822;DHT22;63353;48.702;8.884;2022-12-18T07:43:29;-9.70;99.90
74822;DHT22;63353;48.702;8.884;2022-12-18T07:45:57;-9.60;99.90
74822;DHT22;63353;48.702;8.884;2022-12-18T07:48:23;-9.60;99.90
74822;DHT22;63353;48.702;8.884;2022-12-18T07:50:53;-9.50;99.90
74822;DHT22;63353;48.702;8.884;2022-12-18T07:53:18;-9.50;99.90
74822;DHT22;63353;48.702;8.884;2022-12-18T07:55:44;-9.50;99.90
74822;DHT22;63353;48.702;8.884;2022-12-18T07:58:16;-9.40;99.90
74822;DHT22;63353;48.702;8.884;2022-12-18T08:00:47;-9.20;99.90
74822;DHT22;63353;48.702;8.884;2022-12-18T08:03:13;-9.00;99.90
74822;DHT22;63353;48.702;8.884;2022-12-18T08:05:42;-8.90;99.90
74822;DHT22;63353;48.702;8.884;2022-12-18T08:08:07;-8.70;99.90
74822;DHT22;63353;48.702;8.884;2022-12-18T08:10:33;-8.50;99.90
74822;DHT22;63353;48.702;8.884;2022-12-18T08:12:58;-8.40;99.90
74822;DHT22;63353;48.702;8.884;2022-12-18T08:15:24;-8.30;99.90
74822;DHT22;63353;48.702;8.884;2022-12-18T08:17:59;-8.10;99.90
74822;DHT22;63353;48.702;8.884;2022-12-18T08:20:27;-7.80;99.90
74822;DHT22;63353;48.702;8.884;2022-12-18T08:22:56;-7.60;99.90
74822;DHT22;63353;48.702;8.884;2022-12-18T08:25:23;-7.40;99.90
74822;DHT22;63353;48.702;8.884;2022-12-18T08:27:49;-7.30;99.90
74822;DHT22;63353;48.702;8.884;2022-12-18T08:30:20;-7.20;99.90
74822;DHT22;63353;48.702;8.884;2022-12-18T08:32:46;-7.00;99.90
74822;DHT22;63353;48.702;8.884;2022-12-18T08:35:11;-6.80;99.90
74822;DHT22;63353;48.702;8.884;2022-12-18T08:37:46;-6.60;99.90
74822;DHT22;63353;48.702;8.884;2022-12-18T08:40:15;-6.50;99.90
74822;DHT22;63353;48.702;8.884;2022-12-18T08:42:40;-6.40;99.90
74822;DHT22;63353;48.702;8.884;2022-12-18T08:45:34;-6.40;99.90
74822;DHT22;63353;48.702;8.884;2022-12-18T08:47:59;-6.20;99.90
74822;DHT22;63353;48.702;8.884;2022-12-18T08:50:31;-6.10;99.90
74822;DHT22;63353;48.702;8.884;2022-12-18T08:52:56;-5.90;99.90
74822;DHT22;63353;48.702;8.884;2022-12-18T08:58:12;-5.70;99.90
74822;DHT22;63353;48.702;8.884;2022-12-18T09:00:38;-5.70;99.90
74822;DHT22;63353;48.702;8.884;2022-12-18T09:03:04;-5.60;99.90
74822;DHT22;63353;48.702;8.884;2022-12-18T09:05:30;-5.50;99.90
74822;DHT22;63353;48.702;8.884;2022-12-18T09:07:58;-5.30;99.90
74822;DHT22;63353;48.702;8.884;2022-12-18T09:10:30;-5.10;99.90
74822;DHT22;63353;48.702;8.884;2022-12-18T09:12:59;-4.90;99.90
74822;DHT22;63353;48.702;8.884;2022-12-18T09:15:24;-4.90;99.90
74822;DHT22;63353;48.702;8.884;2022-12-18T09:17:53;-4.80;99.90
74822;DHT22;63353;48.702;8.884;2022-12-18T09:20:19;-4.70;99.90
74822;DHT22;63353;48.702;8.884;2022-12-18T09:22:47;-4.60;99.90
74822;DHT22;63353;48.702;8.884;2022-12-18T09:25:17;-4.40;99.90
74822;DHT22;63353;48.702;8.884;2022-12-18T09:27:42;-4.30;99.90
74822;DHT22;63353;48.702;8.884;2022-12-18T09:30:08;-4.20;99.90
74822;DHT22;63353;48.702;8.884;2022-12-18T09:32:34;-4.30;99.90
74822;DHT22;63353;48.702;8.884;2022-12-18T09:35:00;-4.30;99.90
74822;DHT22;63353;48.702;8.884;2022-12-18T09:37:26;-4.20;99.90
74822;DHT22;63353;48.702;8.884;2022-12-18T09:39:55;-4.10;99.90
74822;DHT22;63353;48.702;8.884;2022-12-18T09:42:22;-4.30;99.90
74822;DHT22;63353;48.702;8.884;2022-12-18T09:44:51;-4.20;99.90
74822;DHT22;63353;48.702;8.884;2022-12-18T09:47:33;-4.20;99.90
74822;DHT22;63353;48.702;8.884;2022-12-18T09:50:06;-3.80;99.90
74822;DHT22;63353;48.702;8.884;2022-12-18T09:52:48;-3.90;99.90
74822;DHT22;63353;48.702;8.884;2022-12-18T10:01:20;-3.20;99.90
74822;DHT22;63353;48.702;8.884;2022-12-18T10:03:46;-3.20;99.90
74822;DHT22;63353;48.702;8.884;2022-12-18T10:06:56;-3.20;99.90
74822;DHT22;63353;48.702;8.884;2022-12-18T10:09:51;-3.20;99.90
74822;DHT22;63353;48.702;8.884;2022-12-18T10:27:38;-2.50;99.90
74822;DHT22;63353;48.702;8.884;2022-12-18T10:30:12;-2.20;99.90
74822;DHT22;63353;48.702;8.884;2022-12-18T10:32:44;-2.20;99.90
74822;DHT22;63353;48.702;8.884;2022-12-18T10:35:23;-2.10;99.90
74822;DHT22;63353;48.702;8.884;2022-12-18T10:38:19;-2.00;99.90
74822;DHT22;63353;48.702;8.884;2022-12-18T10:41:04;-2.10;99.90
74822;DHT22;63353;48.702;8.884;2022-12-18T10:43:49;-1.80;99.90
74822;DHT22;63353;48.702;8.884;2022-12-18T10:46:40;-1.50;99.90
74822;DHT22;63353;48.702;8.884;2022-12-18T10:49:28;-1.50;99.90
74822;DHT22;63353;48.702;8.884;2022-12-18T10:52:21;-1.60;99.90
74822;DHT22;63353;48.702;8.884;2022-12-18T10:54:57;-1.40;99.90
74822;DHT22;63353;48.702;8.884;2022-12-18T11:00:24;-1.30;99.90
74822;DHT22;63353;48.702;8.884;2022-12-18T11:02:50;-1.20;99.90
74822;DHT22;63353;48.702;8.884;2022-12-18T11:05:32;-1.20;99.90
74822;DHT22;63353;48.702;8.884;2022-12-18T11:07:59;-1.10;99.90
74822;DHT22;63353;48.702;8.884;2022-12-18T11:10:32;-1.10;99.90
74822;DHT22;63353;48.702;8.884;2022-12-18T11:13:19;-1.10;99.90
74822;DHT22;63353;48.702;8.884;2022-12-18T11:15:46;-1.00;99.90
74822;DHT22;63353;48.702;8.884;2022-12-18T11:21:12;-1.00;99.90
74822;DHT22;63353;48.702;8.884;2022-12-18T11:23:53;-0.90;99.90
74822;DHT22;63353;48.702;8.884;2022-12-18T11:26:19;-0.70;99.90
74822;DHT22;63353;48.702;8.884;2022-12-18T11:29:09;-0.70;99.90
74822;DHT22;63353;48.702;8.884;2022-12-18T11:31:47;-0.60;99.90
74822;DHT22;63353;48.702;8.884;2022-12-18T11:34:30;-0.60;99.90
74822;DHT22;63353;48.702;8.884;2022-12-18T11:36:59;-0.80;99.90
74822;DHT22;63353;48.702;8.884;2022-12-18T11:39:53;-0.70;99.90
74822;DHT22;63353;48.702;8.884;2022-12-18T11:42:46;-0.50;99.90
74822;DHT22;63353;48.702;8.884;2022-12-18T11:45:31;-0.20;99.90
74822;DHT22;63353;48.702;8.884;2022-12-18T11:50:52;-0.40;99.90
74822;DHT22;63353;48.702;8.884;2022-12-18T11:53:22;-0.30;99.90
74822;DHT22;63353;48.702;8.884;2022-12-18T12:10:17;0.50;99.90
74822;DHT22;63353;48.702;8.884;2022-12-18T12:13:01;0.30;99.90
74822;DHT22;63353;48.702;8.884;2022-12-18T12:21:22;0.20;99.90
74822;DHT22;63353;48.702;8.884;2022-12-18T12:38:11;-0.10;99.90
74822;DHT22;63353;48.702;8.884;2022-12-18T12:40:44;0.00;99.90
74822;DHT22;63353;48.702;8.884;2022-12-18T12:46:25;0.20;99.90
74822;DHT22;63353;48.702;8.884;2022-12-18T12:48:57;0.10;99.90
74822;DHT22;63353;48.702;8.884;2022-12-18T12:54:42;-0.10;99.90
74822;DHT22;63353;48.702;8.884;2022-12-18T12:57:21;-0.20;99.90
74822;DHT22;63353;48.702;8.884;2022-12-18T13:00:21;-0.10;99.90
74822;DHT22;63353;48.702;8.884;2022-12-18T13:03:01;0.20;99.90
74822;DHT22;63353;48.702;8.884;2022-12-18T13:08:27;0.20;99.90
74822;DHT22;63353;48.702;8.884;2022-12-18T13:10:54;0.20;99.90
74822;DHT22;63353;48.702;8.884;2022-12-18T13:13:57;0.20;99.90
74822;DHT22;63353;48.702;8.884;2022-12-18T13:16:25;0.30;99.90
74822;DHT22;63353;48.702;8.884;2022-12-18T13:18:54;0.20;99.90
74822;DHT22;63353;48.702;8.884;2022-12-18T13:21:33;0.20;99.90
74822;DHT22;63353;48.702;8.884;2022-12-18T13:24:24;0.30;99.90
74822;DHT22;63353;48.702;8.884;2022-12-18T13:26:53;0.20;99.90
74822;DHT22;63353;48.702;8.884;2022-12-18T13:32:28;0.30;99.90
74822;DHT22;63353;48.702;8.884;2022-12-18T13:37:54;0.10;99.90
74822;DHT22;63353;48.702;8.884;2022-12-18T13:48:29;0.10;99.90
74822;DHT22;63353;48.702;8.884;2022-12-18T13:51:06;-0.10;99.90
74822;DHT22;63353;48.702;8.884;2022-12-18T13:53:39;0.00;99.90
74822;DHT22;63353;48.702;8.884;2022-12-18T13:56:07;0.20;99.90
74822;DHT22;63353;48.702;8.884;2022-12-18T13:58:33;0.20;99.90
74822;DHT22;63353;48.702;8.884;2022-12-18T14:00:59;0.20;99.90
74822;DHT22;63353;48.702;8.884;2022-12-18T14:03:29;0.20;99.90
74822;DHT22;63353;48.702;8.884;2022-12-18T14:05:59;0.10;99.90
74822;DHT22;63353;48.702;8.884;2022-12-18T14:08:29;0.00;99.90
74822;DHT22;63353;48.702;8.884;2022-12-18T14:10:57;-0.10;99.90
74822;DHT22;63353;48.702;8.884;2022-12-18T14:13:24;-0.10;99.90
74822;DHT22;63353;48.702;8.884;2022-12-18T14:15:52;-0.30;99.90
74822;DHT22;63353;48.702;8.884;2022-12-18T14:18:45;-0.50;99.90
74822;DHT22;63353;48.702;8.884;2022-12-18T14:21:27;-0.60;99.90
74822;DHT22;63353;48.702;8.884;2022-12-18T14:24:13;-0.70;99.90
74822;DHT22;63353;48.702;8.884;2022-12-18T14:26:40;-0.80;99.90
74822;DHT22;63353;48.702;8.884;2022-12-18T14:29:34;-0.80;99.90
74822;DHT22;63353;48.702;8.884;2022-12-18T14:32:12;-0.80;99.90
74822;DHT22;63353;48.702;8.884;2022-12-18T14:34:41;-0.80;99.90
74822;DHT22;63353;48.702;8.884;2022-12-18T14:37:10;-0.90;99.90
74822;DHT22;63353;48.702;8.884;2022-12-18T14:39:37;-1.10;99.90
74822;DHT22;63353;48.702;8.884;2022-12-18T14:42:02;-1.20;99.90
74822;DHT22;63353;48.702;8.884;2022-12-18T14:44:31;-1.30;99.90
74822;DHT22;63353;48.702;8.884;2022-12-18T14:46:57;-1.50;99.90
74822;DHT22;63353;48.702;8.884;2022-12-18T14:49:34;-1.60;99.90
74822;DHT22;63353;48.702;8.884;2022-12-18T14:52:13;-1.80;99.90
74822;DHT22;63353;48.702;8.884;2022-12-18T14:54:46;-1.90;99.90
74822;DHT22;63353;48.702;8.884;2022-12-18T14:57:27;-1.90;99.90
74822;DHT22;63353;48.702;8.884;2022-12-18T15:00:14;-2.10;99.90
74822;DHT22;63353;48.702;8.884;2022-12-18T15:02:43;-2.20;99.90
74822;DHT22;63353;48.702;8.884;2022-12-18T15:07:50;-2.50;99.90
74822;DHT22;63353;48.702;8.884;2022-12-18T15:10:22;-2.70;99.90
74822;DHT22;63353;48.702;8.884;2022-12-18T15:18:05;-3.20;99.90
74822;DHT22;63353;48.702;8.884;2022-12-18T15:20:49;-3.30;99.90
74822;DHT22;63353;48.702;8.884;2022-12-18T15:34:28;-4.10;99.90
74822;DHT22;63353;48.702;8.884;2022-12-18T15:36:29;-4.20;99.90
74822;DHT22;63353;48.702;8.884;2022-12-18T15:38:56;-4.20;99.90
74822;DHT22;63353;48.702;8.884;2022-12-18T15:41:23;-4.30;99.90
74822;DHT22;63353;48.702;8.884;2022-12-18T15:43:50;-4.40;99.90
74822;DHT22;63353;48.702;8.884;2022-12-18T15:46:22;-4.50;99.90
74822;DHT22;63353;48.702;8.884;2022-12-18T15:48:55;-4.60;99.90
74822;DHT22;63353;48.702;8.884;2022-12-18T15:51:38;-4.70;99.90
74822;DHT22;63353;48.702;8.884;2022-12-18T15:54:08;-4.80;99.90
74822;DHT22;63353;48.702;8.884;2022-12-18T15:56:34;-4.80;99.90
74822;DHT22;63353;48.702;8.884;2022-12-18T15:59:19;-4.80;99.90
74822;DHT22;63353;48.702;8.884;2022-12-18T16:01:50;-4.80;99.90
74822;DHT22;63353;48.702;8.884;2022-12-18T16:04:18;-4.90;99.90
74822;DHT22;63353;48.702;8.884;2022-12-18T16:06:50;-4.90;99.90
74822;DHT22;63353;48.702;8.884;2022-12-18T16:09:29;-5.00;99.90
74822;DHT22;63353;48.702;8.884;2022-12-18T16:11:59;-4.90;99.90
74822;DHT22;63353;48.702;8.884;2022-12-18T16:14:27;-4.90;99.90
74822;DHT22;63353;48.702;8.884;2022-12-18T16:17:01;-4.90;99.90
74822;DHT22;63353;48.702;8.884;2022-12-18T16:19:27;-4.80;99.90
74822;DHT22;63353;48.702;8.884;2022-12-18T16:21:55;-4.80;99.90
74822;DHT22;63353;48.702;8.884;2022-12-18T16:24:23;-4.80;99.90
74822;DHT22;63353;48.702;8.884;2022-12-18T16:26:53;-4.80;99.90
74822;DHT22;63353;48.702;8.884;2022-12-18T16:29:22;-4.70;99.90
74822;DHT22;63353;48.702;8.884;2022-12-18T16:31:58;-4.80;99.90
74822;DHT22;63353;48.702;8.884;2022-12-18T16:34:26;-4.80;99.90
74822;DHT22;63353;48.702;8.884;2022-12-18T16:36:58;-4.80;99.90
74822;DHT22;63353;48.702;8.884;2022-12-18T16:39:25;-4.70;99.90
74822;DHT22;63353;48.702;8.884;2022-12-18T16:41:50;-4.70;99.90
74822;DHT22;63353;48.702;8.884;2022-12-18T16:44:17;-4.70;99.90
74822;DHT22;63353;48.702;8.884;2022-12-18T16:46:46;-4.60;99.90
74822;DHT22;63353;48.702;8.884;2022-12-18T16:49:16;-4.60;99.90
74822;DHT22;63353;48.702;8.884;2022-12-18T16:51:42;-4.60;99.90
74822;DHT22;63353;48.702;8.884;2022-12-18T16:54:08;-4.60;99.90
74822;DHT22;63353;48.702;8.884;2022-12-18T16:56:34;-4.60;99.90
74822;DHT22;63353;48.702;8.884;2022-12-18T16:59:01;-4.60;99.90
74822;DHT22;63353;48.702;8.884;2022-12-18T17:01:34;-4.60;99.90
74822;DHT22;63353;48.702;8.884;2022-12-18T17:04:01;-4.50;99.90
74822;DHT22;63353;48.702;8.884;2022-12-18T17:06:29;-4.50;99.90
74822;DHT22;63353;48.702;8.884;2022-12-18T17:09:00;-4.50;99.90
74822;DHT22;63353;48.702;8.884;2022-12-18T17:11:30;-4.50;99.90
74822;DHT22;63353;48.702;8.884;2022-12-18T17:13:56;-4.50;99.90
74822;DHT22;63353;48.702;8.884;2022-12-18T17:16:22;-4.50;99.90
74822;DHT22;63353;48.702;8.884;2022-12-18T17:18:52;-4.40;99.90
74822;DHT22;63353;48.702;8.884;2022-12-18T17:21:21;-4.50;99.90
74822;DHT22;63353;48.702;8.884;2022-12-18T17:23:46;-4.50;99.90
74822;DHT22;63353;48.702;8.884;2022-12-18T17:26:12;-4.50;99.90
74822;DHT22;63353;48.702;8.884;2022-12-18T17:28:44;-4.50;99.90
74822;DHT22;63353;48.702;8.884;2022-12-18T17:31:21;-4.50;99.90
74822;DHT22;63353;48.702;8.884;2022-12-18T17:33:47;-4.50;99.90
74822;DHT22;63353;48.702;8.884;2022-12-18T17:36:16;-4.50;99.90
74822;DHT22;63353;48.702;8.884;2022-12-18T17:38:56;-4.40;99.90
74822;DHT22;63353;48.702;8.884;2022-12-18T17:41:23;-4.40;99.90
74822;DHT22;63353;48.702;8.884;2022-12-18T17:44:00;-4.50;99.90
74822;DHT22;63353;48.702;8.884;2022-12-18T17:46:27;-4.40;99.90
74822;DHT22;63353;48.702;8.884;2022-12-18T17:49:00;-4.50;99.90
74822;DHT22;63353;48.702;8.884;2022-12-18T17:51:27;-4.50;99.90
74822;DHT22;63353;48.702;8.884;2022-12-18T17:53:53;-4.50;99.90
74822;DHT22;63353;48.702;8.884;2022-12-18T17:56:20;-4.50;99.90
74822;DHT22;63353;48.702;8.884;2022-12-18T17:58:46;-4.50;99.90
74822;DHT22;63353;48.702;8.884;2022-12-18T18:01:14;-4.50;99.90
74822;DHT22;63353;48.702;8.884;2022-12-18T18:03:42;-4.40;99.90
74822;DHT22;63353;48.702;8.884;2022-12-18T18:06:22;-4.40;99.90
74822;DHT22;63353;48.702;8.884;2022-12-18T18:08:50;-4.40;99.90
74822;DHT22;63353;48.702;8.884;2022-12-18T18:11:25;-4.30;99.90
74822;DHT22;63353;48.702;8.884;2022-12-18T18:14:16;-4.30;99.90
74822;DHT22;63353;48.702;8.884;2022-12-18T18:16:50;-4.30;99.90
74822;DHT22;63353;48.702;8.884;2022-12-18T18:19:23;-4.30;99.90
74822;DHT22;63353;48.702;8.884;2022-12-18T18:21:58;-4.30;99.90
74822;DHT22;63353;48.702;8.884;2022-12-18T18:24:23;-4.20;99.90
74822;DHT22;63353;48.702;8.884;2022-12-18T18:27:02;-4.20;99.90
74822;DHT22;63353;48.702;8.884;2022-12-18T18:29:28;-4.20;99.90
74822;DHT22;63353;48.702;8.884;2022-12-18T18:31:57;-4.20;99.90